sensor_id;sensor_type;location;lat;lon;timestamp;pressure;altitude;pressure_sealevel;temperature
58929;BMP180;44713;53.378;10.022;2022-11-15T00:01:47;100812.00;;;4.30
58929;BMP180;44713;53.378;10.022;2022-11-15T00:04:31;100816.00;;;4.30
58929;BMP180;44713;53.378;10.022;2022-11-15T00:07:15;100826.00;;;4.30
58929;BMP180;44713;53.378;10.022;2022-11-15T00:09:58;100815.00;;;4.30
58929;BMP180;44713;53.378;10.022;2022-11-15T00:12:42;100823.00;;;4.40
58929;BMP180;44713;53.378;10.022;2022-11-15T00:15:26;100828.00;;;4.40
58929;BMP180;44713;53.378;10.022;2022-11-15T00:18:13;100829.00;;;4.50
58929;BMP180;44713;53.378;10.022;2022-11-15T00:21:04;100836.00;;;4.60
58929;BMP180;44713;53.378;10.022;2022-11-15T00:23:49;100830.00;;;4.70
58929;BMP180;44713;53.378;10.022;2022-11-15T00:26:33;100820.00;;;4.70
58929;BMP180;44713;53.378;10.022;2022-11-15T00:29:17;100818.00;;;4.80
58929;BMP180;44713;53.378;10.022;2022-11-15T00:32:01;100813.00;;;4.80
58929;BMP180;44713;53.378;10.022;2022-11-15T00:34:45;100815.00;;;4.80
58929;BMP180;44713;53.378;10.022;2022-11-15T00:37:29;100811.00;;;4.80
58929;BMP180;44713;53.378;10.022;2022-11-15T00:40:14;100812.00;;;4.80
58929;BMP180;44713;53.378;10.022;2022-11-15T00:42:58;100815.00;;;4.80
58929;BMP180;44713;53.378;10.022;2022-11-15T00:45:42;100807.00;;;4.80
58929;BMP180;44713;53.378;10.022;2022-11-15T00:48:26;100820.00;;;4.80
58929;BMP180;44713;53.378;10.022;2022-11-15T00:51:10;100814.00;;;4.70
58929;BMP180;44713;53.378;10.022;2022-11-15T00:53:54;100815.00;;;4.70
58929;BMP180;44713;53.378;10.022;2022-11-15T00:56:38;100817.00;;;4.60
58929;BMP180;44713;53.378;10.022;2022-11-15T00:59:21;100813.00;;;4.60
58929;BMP180;44713;53.378;10.022;2022-11-15T01:02:05;100812.00;;;4.50
58929;BMP180;44713;53.378;10.022;2022-11-15T01:04:49;100814.00;;;4.50
58929;BMP180;44713;53.378;10.022;2022-11-15T01:07:33;100809.00;;;4.40
58929;BMP180;44713;53.378;10.022;2022-11-15T01:10:17;100810.00;;;4.30
58929;BMP180;44713;53.378;10.022;2022-11-15T01:13:01;100807.00;;;4.30
58929;BMP180;44713;53.378;10.022;2022-11-15T01:15:45;100803.00;;;4.20
58929;BMP180;44713;53.378;10.022;2022-11-15T01:18:28;100806.00;;;4.20
58929;BMP180;44713;53.378;10.022;2022-11-15T01:21:18;100811.00;;;4.10
58929;BMP180;44713;53.378;10.022;2022-11-15T01:24:03;100806.00;;;4.10
58929;BMP180;44713;53.378;10.022;2022-11-15T01:26:46;100811.00;;;4.10
58929;BMP180;44713;53.378;10.022;2022-11-15T01:29:30;100811.00;;;3.90
58929;BMP180;44713;53.378;10.022;2022-11-15T01:32:14;100804.00;;;4.00
58929;BMP180;44713;53.378;10.022;2022-11-15T01:34:58;100797.00;;;4.00
58929;BMP180;44713;53.378;10.022;2022-11-15T01:37:42;100788.00;;;3.90
58929;BMP180;44713;53.378;10.022;2022-11-15T01:40:26;100787.00;;;3.90
58929;BMP180;44713;53.378;10.022;2022-11-15T01:43:24;100795.00;;;3.80
58929;BMP180;44713;53.378;10.022;2022-11-15T01:49:11;100780.00;;;3.70
58929;BMP180;44713;53.378;10.022;2022-11-15T01:51:57;100785.00;;;3.80
58929;BMP180;44713;53.378;10.022;2022-11-15T01:54:42;100772.00;;;3.80
58929;BMP180;44713;53.378;10.022;2022-11-15T01:57:26;100772.00;;;3.70
58929;BMP180;44713;53.378;10.022;2022-11-15T02:00:11;100765.00;;;3.70
58929;BMP180;44713;53.378;10.022;2022-11-15T02:02:55;100773.00;;;3.70
58929;BMP180;44713;53.378;10.022;2022-11-15T02:05:39;100774.00;;;3.70
58929;BMP180;44713;53.378;10.022;2022-11-15T02:08:23;100776.00;;;3.60
58929;BMP180;44713;53.378;10.022;2022-11-15T02:11:08;100769.00;;;3.60
58929;BMP180;44713;53.378;10.022;2022-11-15T02:13:53;100777.00;;;3.50
58929;BMP180;44713;53.378;10.022;2022-11-15T02:16:48;100777.00;;;3.50
58929;BMP180;44713;53.378;10.022;2022-11-15T02:23:04;100766.00;;;3.50
58929;BMP180;44713;53.378;10.022;2022-11-15T02:27:27;100755.00;;;3.50
58929;BMP180;44713;53.378;10.022;2022-11-15T02:30:03;100746.00;;;3.40
58929;BMP180;44713;53.378;10.022;2022-11-15T02:33:05;100729.00;;;3.30
58929;BMP180;44713;53.378;10.022;2022-11-15T02:36:10;100734.00;;;3.30
58929;BMP180;44713;53.378;10.022;2022-11-15T02:42:15;100736.00;;;3.00
58929;BMP180;44713;53.378;10.022;2022-11-15T02:45:39;100739.00;;;3.00
58929;BMP180;44713;53.378;10.022;2022-11-15T02:48:25;100745.00;;;3.00
58929;BMP180;44713;53.378;10.022;2022-11-15T02:51:09;100743.00;;;3.10
58929;BMP180;44713;53.378;10.022;2022-11-15T02:53:55;100737.00;;;3.10
58929;BMP180;44713;53.378;10.022;2022-11-15T02:56:40;100727.00;;;3.20
58929;BMP180;44713;53.378;10.022;2022-11-15T02:59:43;100728.00;;;3.20
58929;BMP180;44713;53.378;10.022;2022-11-15T03:02:53;100731.00;;;3.20
58929;BMP180;44713;53.378;10.022;2022-11-15T03:05:53;100730.00;;;3.00
58929;BMP180;44713;53.378;10.022;2022-11-15T03:09:05;100736.00;;;2.90
58929;BMP180;44713;53.378;10.022;2022-11-15T03:11:56;100740.00;;;2.90
58929;BMP180;44713;53.378;10.022;2022-11-15T03:14:53;100747.00;;;2.90
58929;BMP180;44713;53.378;10.022;2022-11-15T03:17:42;100734.00;;;3.00
58929;BMP180;44713;53.378;10.022;2022-11-15T03:20:27;100734.00;;;3.00
58929;BMP180;44713;53.378;10.022;2022-11-15T03:23:13;100727.00;;;3.00
58929;BMP180;44713;53.378;10.022;2022-11-15T03:25:58;100720.00;;;3.10
58929;BMP180;44713;53.378;10.022;2022-11-15T03:28:50;100727.00;;;3.00
58929;BMP180;44713;53.378;10.022;2022-11-15T03:31:39;100726.00;;;3.00
58929;BMP180;44713;53.378;10.022;2022-11-15T03:34:42;100728.00;;;3.00
58929;BMP180;44713;53.378;10.022;2022-11-15T03:37:44;100731.00;;;2.90
58929;BMP180;44713;53.378;10.022;2022-11-15T03:40:39;100730.00;;;3.00
58929;BMP180;44713;53.378;10.022;2022-11-15T03:46:20;100733.00;;;2.90
58929;BMP180;44713;53.378;10.022;2022-11-15T03:49:13;100736.00;;;2.80
58929;BMP180;44713;53.378;10.022;2022-11-15T03:52:00;100721.00;;;2.90
58929;BMP180;44713;53.378;10.022;2022-11-15T03:54:53;100734.00;;;2.80
58929;BMP180;44713;53.378;10.022;2022-11-15T03:57:38;100729.00;;;2.90
58929;BMP180;44713;53.378;10.022;2022-11-15T04:00:22;100723.00;;;2.90
58929;BMP180;44713;53.378;10.022;2022-11-15T04:03:05;100725.00;;;2.90
58929;BMP180;44713;53.378;10.022;2022-11-15T04:05:51;100726.00;;;3.00
58929;BMP180;44713;53.378;10.022;2022-11-15T04:08:35;100727.00;;;3.00
58929;BMP180;44713;53.378;10.022;2022-11-15T04:11:19;100713.00;;;3.00
58929;BMP180;44713;53.378;10.022;2022-11-15T04:14:02;100712.00;;;3.20
58929;BMP180;44713;53.378;10.022;2022-11-15T04:16:46;100714.00;;;3.10
58929;BMP180;44713;53.378;10.022;2022-11-15T04:19:30;100720.00;;;3.20
58929;BMP180;44713;53.378;10.022;2022-11-15T04:22:33;100716.00;;;3.20
58929;BMP180;44713;53.378;10.022;2022-11-15T04:25:35;100726.00;;;3.30
58929;BMP180;44713;53.378;10.022;2022-11-15T04:28:19;100724.00;;;3.30
58929;BMP180;44713;53.378;10.022;2022-11-15T04:31:04;100715.00;;;3.30
58929;BMP180;44713;53.378;10.022;2022-11-15T04:33:48;100719.00;;;3.40
58929;BMP180;44713;53.378;10.022;2022-11-15T04:36:31;100721.00;;;3.40
58929;BMP180;44713;53.378;10.022;2022-11-15T04:39:34;100725.00;;;3.50
58929;BMP180;44713;53.378;10.022;2022-11-15T04:42:18;100723.00;;;3.60
58929;BMP180;44713;53.378;10.022;2022-11-15T04:45:02;100730.00;;;3.60
58929;BMP180;44713;53.378;10.022;2022-11-15T04:47:46;100730.00;;;3.70
58929;BMP180;44713;53.378;10.022;2022-11-15T04:50:30;100711.00;;;3.70
58929;BMP180;44713;53.378;10.022;2022-11-15T04:53:14;100719.00;;;3.80
58929;BMP180;44713;53.378;10.022;2022-11-15T04:55:59;100719.00;;;3.90
58929;BMP180;44713;53.378;10.022;2022-11-15T04:58:42;100727.00;;;3.90
58929;BMP180;44713;53.378;10.022;2022-11-15T05:01:26;100727.00;;;3.90
58929;BMP180;44713;53.378;10.022;2022-11-15T05:04:10;100720.00;;;4.00
58929;BMP180;44713;53.378;10.022;2022-11-15T05:07:03;100714.00;;;4.10
58929;BMP180;44713;53.378;10.022;2022-11-15T05:09:50;100729.00;;;4.00
58929;BMP180;44713;53.378;10.022;2022-11-15T05:12:34;100721.00;;;4.10
58929;BMP180;44713;53.378;10.022;2022-11-15T05:15:19;100717.00;;;4.10
58929;BMP180;44713;53.378;10.022;2022-11-15T05:18:03;100714.00;;;4.10
58929;BMP180;44713;53.378;10.022;2022-11-15T05:20:46;100712.00;;;4.20
58929;BMP180;44713;53.378;10.022;2022-11-15T05:23:30;100708.00;;;4.30
58929;BMP180;44713;53.378;10.022;2022-11-15T05:26:16;100699.00;;;4.30
58929;BMP180;44713;53.378;10.022;2022-11-15T05:29:01;100712.00;;;4.30
58929;BMP180;44713;53.378;10.022;2022-11-15T05:31:46;100711.00;;;4.40
58929;BMP180;44713;53.378;10.022;2022-11-15T05:34:30;100700.00;;;4.40
58929;BMP180;44713;53.378;10.022;2022-11-15T05:37:14;100697.00;;;4.50
58929;BMP180;44713;53.378;10.022;2022-11-15T05:39:59;100714.00;;;4.40
58929;BMP180;44713;53.378;10.022;2022-11-15T05:42:44;100702.00;;;4.50
58929;BMP180;44713;53.378;10.022;2022-11-15T05:45:29;100707.00;;;4.50
58929;BMP180;44713;53.378;10.022;2022-11-15T05:48:15;100717.00;;;4.50
58929;BMP180;44713;53.378;10.022;2022-11-15T05:50:59;100713.00;;;4.60
58929;BMP180;44713;53.378;10.022;2022-11-15T05:53:44;100717.00;;;4.60
58929;BMP180;44713;53.378;10.022;2022-11-15T05:56:29;100716.00;;;4.60
58929;BMP180;44713;53.378;10.022;2022-11-15T05:59:13;100717.00;;;4.70
58929;BMP180;44713;53.378;10.022;2022-11-15T06:01:58;100719.00;;;4.80
58929;BMP180;44713;53.378;10.022;2022-11-15T06:04:42;100720.00;;;4.80
58929;BMP180;44713;53.378;10.022;2022-11-15T06:07:26;100724.00;;;4.80
58929;BMP180;44713;53.378;10.022;2022-11-15T06:10:10;100723.00;;;4.90
58929;BMP180;44713;53.378;10.022;2022-11-15T06:13:03;100726.00;;;4.90
58929;BMP180;44713;53.378;10.022;2022-11-15T06:15:47;100729.00;;;5.00
58929;BMP180;44713;53.378;10.022;2022-11-15T06:18:33;100721.00;;;5.10
58929;BMP180;44713;53.378;10.022;2022-11-15T06:21:17;100727.00;;;5.10
58929;BMP180;44713;53.378;10.022;2022-11-15T06:24:01;100731.00;;;5.20
58929;BMP180;44713;53.378;10.022;2022-11-15T06:26:45;100733.00;;;5.20
58929;BMP180;44713;53.378;10.022;2022-11-15T06:29:29;100738.00;;;5.20
58929;BMP180;44713;53.378;10.022;2022-11-15T06:32:13;100737.00;;;5.30
58929;BMP180;44713;53.378;10.022;2022-11-15T06:34:57;100743.00;;;5.30
58929;BMP180;44713;53.378;10.022;2022-11-15T06:37:41;100741.00;;;5.40
58929;BMP180;44713;53.378;10.022;2022-11-15T06:40:25;100742.00;;;5.40
58929;BMP180;44713;53.378;10.022;2022-11-15T06:43:09;100741.00;;;5.40
58929;BMP180;44713;53.378;10.022;2022-11-15T06:45:53;100741.00;;;5.40
58929;BMP180;44713;53.378;10.022;2022-11-15T06:48:38;100741.00;;;5.40
58929;BMP180;44713;53.378;10.022;2022-11-15T06:51:21;100739.00;;;5.50
58929;BMP180;44713;53.378;10.022;2022-11-15T06:54:05;100750.00;;;5.60
58929;BMP180;44713;53.378;10.022;2022-11-15T06:56:49;100745.00;;;5.60
58929;BMP180;44713;53.378;10.022;2022-11-15T06:59:33;100743.00;;;5.60
58929;BMP180;44713;53.378;10.022;2022-11-15T07:02:16;100746.00;;;5.70
58929;BMP180;44713;53.378;10.022;2022-11-15T07:05:00;100748.00;;;5.70
58929;BMP180;44713;53.378;10.022;2022-11-15T07:07:50;100759.00;;;5.70
58929;BMP180;44713;53.378;10.022;2022-11-15T07:10:34;100753.00;;;5.80
58929;BMP180;44713;53.378;10.022;2022-11-15T07:13:18;100758.00;;;5.80
58929;BMP180;44713;53.378;10.022;2022-11-15T07:16:04;100755.00;;;5.90
58929;BMP180;44713;53.378;10.022;2022-11-15T07:18:48;100758.00;;;5.90
58929;BMP180;44713;53.378;10.022;2022-11-15T07:21:32;100771.00;;;6.00
58929;BMP180;44713;53.378;10.022;2022-11-15T07:24:16;100752.00;;;6.00
58929;BMP180;44713;53.378;10.022;2022-11-15T07:27:00;100763.00;;;6.00
58929;BMP180;44713;53.378;10.022;2022-11-15T07:29:43;100775.00;;;6.10
58929;BMP180;44713;53.378;10.022;2022-11-15T07:32:27;100773.00;;;6.20
58929;BMP180;44713;53.378;10.022;2022-11-15T07:35:12;100764.00;;;6.20
58929;BMP180;44713;53.378;10.022;2022-11-15T07:38:00;100768.00;;;6.30
58929;BMP180;44713;53.378;10.022;2022-11-15T07:40:45;100764.00;;;6.30
58929;BMP180;44713;53.378;10.022;2022-11-15T07:43:30;100761.00;;;6.40
58929;BMP180;44713;53.378;10.022;2022-11-15T07:46:16;100755.00;;;6.50
58929;BMP180;44713;53.378;10.022;2022-11-15T07:49:00;100760.00;;;6.50
58929;BMP180;44713;53.378;10.022;2022-11-15T07:51:44;100763.00;;;6.50
58929;BMP180;44713;53.378;10.022;2022-11-15T07:54:28;100763.00;;;6.60
58929;BMP180;44713;53.378;10.022;2022-11-15T07:57:12;100761.00;;;6.70
58929;BMP180;44713;53.378;10.022;2022-11-15T07:59:56;100751.00;;;6.80
58929;BMP180;44713;53.378;10.022;2022-11-15T08:02:40;100736.00;;;6.90
58929;BMP180;44713;53.378;10.022;2022-11-15T08:05:24;100751.00;;;6.90
58929;BMP180;44713;53.378;10.022;2022-11-15T08:08:10;100759.00;;;6.90
58929;BMP180;44713;53.378;10.022;2022-11-15T08:10:57;100753.00;;;6.90
58929;BMP180;44713;53.378;10.022;2022-11-15T08:13:41;100743.00;;;7.00
58929;BMP180;44713;53.378;10.022;2022-11-15T08:16:25;100733.00;;;7.10
58929;BMP180;44713;53.378;10.022;2022-11-15T08:19:08;100737.00;;;7.20
58929;BMP180;44713;53.378;10.022;2022-11-15T08:21:52;100756.00;;;7.20
58929;BMP180;44713;53.378;10.022;2022-11-15T08:24:36;100757.00;;;7.20
58929;BMP180;44713;53.378;10.022;2022-11-15T08:27:20;100760.00;;;7.30
58929;BMP180;44713;53.378;10.022;2022-11-15T08:30:05;100750.00;;;7.40
58929;BMP180;44713;53.378;10.022;2022-11-15T08:32:51;100752.00;;;7.50
58929;BMP180;44713;53.378;10.022;2022-11-15T08:35:35;100746.00;;;7.70
58929;BMP180;44713;53.378;10.022;2022-11-15T08:38:19;100754.00;;;7.80
58929;BMP180;44713;53.378;10.022;2022-11-15T08:41:04;100763.00;;;7.90
58929;BMP180;44713;53.378;10.022;2022-11-15T08:43:49;100755.00;;;8.10
58929;BMP180;44713;53.378;10.022;2022-11-15T08:46:33;100753.00;;;8.20
58929;BMP180;44713;53.378;10.022;2022-11-15T08:49:17;100756.00;;;8.30
58929;BMP180;44713;53.378;10.022;2022-11-15T08:52:02;100754.00;;;8.40
58929;BMP180;44713;53.378;10.022;2022-11-15T08:54:46;100751.00;;;8.30
58929;BMP180;44713;53.378;10.022;2022-11-15T08:57:30;100741.00;;;8.50
58929;BMP180;44713;53.378;10.022;2022-11-15T09:00:14;100750.00;;;8.50
58929;BMP180;44713;53.378;10.022;2022-11-15T09:02:58;100740.00;;;8.60
58929;BMP180;44713;53.378;10.022;2022-11-15T09:05:42;100742.00;;;8.80
58929;BMP180;44713;53.378;10.022;2022-11-15T09:08:30;100744.00;;;8.90
58929;BMP180;44713;53.378;10.022;2022-11-15T09:11:14;100743.00;;;8.90
58929;BMP180;44713;53.378;10.022;2022-11-15T09:14:00;100749.00;;;9.00
58929;BMP180;44713;53.378;10.022;2022-11-15T09:16:44;100750.00;;;9.00
58929;BMP180;44713;53.378;10.022;2022-11-15T09:19:28;100754.00;;;9.00
58929;BMP180;44713;53.378;10.022;2022-11-15T09:22:12;100756.00;;;9.10
58929;BMP180;44713;53.378;10.022;2022-11-15T09:24:56;100754.00;;;9.10
58929;BMP180;44713;53.378;10.022;2022-11-15T09:27:40;100754.00;;;9.10
58929;BMP180;44713;53.378;10.022;2022-11-15T09:30:25;100768.00;;;9.20
58929;BMP180;44713;53.378;10.022;2022-11-15T09:33:11;100765.00;;;9.30
58929;BMP180;44713;53.378;10.022;2022-11-15T09:36:03;100754.00;;;9.30
58929;BMP180;44713;53.378;10.022;2022-11-15T09:38:48;100750.00;;;9.40
58929;BMP180;44713;53.378;10.022;2022-11-15T09:41:38;100751.00;;;9.70
58929;BMP180;44713;53.378;10.022;2022-11-15T09:45:39;100751.00;;;9.70
58929;BMP180;44713;53.378;10.022;2022-11-15T09:48:16;100745.00;;;9.90
58929;BMP180;44713;53.378;10.022;2022-11-15T09:51:04;100757.00;;;10.00
58929;BMP180;44713;53.378;10.022;2022-11-15T09:53:36;100747.00;;;10.10
58929;BMP180;44713;53.378;10.022;2022-11-15T09:56:11;100748.00;;;10.20
58929;BMP180;44713;53.378;10.022;2022-11-15T09:58:53;100744.00;;;10.20
58929;BMP180;44713;53.378;10.022;2022-11-15T10:03:54;100736.00;;;10.40
58929;BMP180;44713;53.378;10.022;2022-11-15T10:06:26;100736.00;;;10.30
58929;BMP180;44713;53.378;10.022;2022-11-15T10:11:26;100741.00;;;10.50
58929;BMP180;44713;53.378;10.022;2022-11-15T10:13:56;100743.00;;;10.50
58929;BMP180;44713;53.378;10.022;2022-11-15T10:24:37;100729.00;;;10.80
58929;BMP180;44713;53.378;10.022;2022-11-15T10:27:11;100726.00;;;10.90
58929;BMP180;44713;53.378;10.022;2022-11-15T10:29:46;100728.00;;;10.90
58929;BMP180;44713;53.378;10.022;2022-11-15T10:32:13;100714.00;;;11.00
58929;BMP180;44713;53.378;10.022;2022-11-15T10:34:38;100724.00;;;11.00
58929;BMP180;44713;53.378;10.022;2022-11-15T10:37:04;100717.00;;;11.10
58929;BMP180;44713;53.378;10.022;2022-11-15T10:39:29;100715.00;;;11.10
58929;BMP180;44713;53.378;10.022;2022-11-15T10:41:55;100715.00;;;11.10
58929;BMP180;44713;53.378;10.022;2022-11-15T10:44:31;100713.00;;;11.20
58929;BMP180;44713;53.378;10.022;2022-11-15T10:49:26;100697.00;;;11.30
58929;BMP180;44713;53.378;10.022;2022-11-15T10:52:01;100692.00;;;11.30
58929;BMP180;44713;53.378;10.022;2022-11-15T10:56:57;100694.00;;;11.60
58929;BMP180;44713;53.378;10.022;2022-11-15T10:59:32;100689.00;;;11.50
58929;BMP180;44713;53.378;10.022;2022-11-15T11:01:59;100681.00;;;11.50
58929;BMP180;44713;53.378;10.022;2022-11-15T11:04:24;100684.00;;;11.60
58929;BMP180;44713;53.378;10.022;2022-11-15T11:06:58;100674.00;;;11.60
58929;BMP180;44713;53.378;10.022;2022-11-15T11:09:39;100671.00;;;11.70
58929;BMP180;44713;53.378;10.022;2022-11-15T11:12:10;100675.00;;;11.60
58929;BMP180;44713;53.378;10.022;2022-11-15T11:14:38;100674.00;;;11.60
58929;BMP180;44713;53.378;10.022;2022-11-15T11:20:02;100666.00;;;11.70
58929;BMP180;44713;53.378;10.022;2022-11-15T11:22:50;100661.00;;;11.70
58929;BMP180;44713;53.378;10.022;2022-11-15T11:25:32;100658.00;;;11.60
58929;BMP180;44713;53.378;10.022;2022-11-15T11:28:33;100670.00;;;11.60
58929;BMP180;44713;53.378;10.022;2022-11-15T11:31:40;100664.00;;;11.80
58929;BMP180;44713;53.378;10.022;2022-11-15T11:34:40;100666.00;;;11.60
58929;BMP180;44713;53.378;10.022;2022-11-15T11:37:30;100659.00;;;11.60
58929;BMP180;44713;53.378;10.022;2022-11-15T11:43:01;100653.00;;;11.70
58929;BMP180;44713;53.378;10.022;2022-11-15T11:45:49;100652.00;;;11.80
58929;BMP180;44713;53.378;10.022;2022-11-15T11:48:43;100648.00;;;11.90
58929;BMP180;44713;53.378;10.022;2022-11-15T11:51:21;100645.00;;;12.00
58929;BMP180;44713;53.378;10.022;2022-11-15T11:53:55;100656.00;;;12.20
58929;BMP180;44713;53.378;10.022;2022-11-15T11:56:25;100652.00;;;12.30
58929;BMP180;44713;53.378;10.022;2022-11-15T11:58:53;100650.00;;;12.40
58929;BMP180;44713;53.378;10.022;2022-11-15T12:01:25;100652.00;;;12.50
58929;BMP180;44713;53.378;10.022;2022-11-15T12:04:01;100651.00;;;12.50
58929;BMP180;44713;53.378;10.022;2022-11-15T12:06:29;100646.00;;;12.50
58929;BMP180;44713;53.378;10.022;2022-11-15T12:09:16;100645.00;;;12.60
58929;BMP180;44713;53.378;10.022;2022-11-15T12:11:55;100645.00;;;12.80
58929;BMP180;44713;53.378;10.022;2022-11-15T12:14:38;100637.00;;;12.80
58929;BMP180;44713;53.378;10.022;2022-11-15T12:17:07;100621.00;;;12.90
58929;BMP180;44713;53.378;10.022;2022-11-15T12:19:33;100627.00;;;12.90
58929;BMP180;44713;53.378;10.022;2022-11-15T12:22:16;100631.00;;;12.80
58929;BMP180;44713;53.378;10.022;2022-11-15T12:24:51;100621.00;;;12.80
58929;BMP180;44713;53.378;10.022;2022-11-15T12:27:38;100628.00;;;12.90
58929;BMP180;44713;53.378;10.022;2022-11-15T12:30:17;100618.00;;;12.80
58929;BMP180;44713;53.378;10.022;2022-11-15T12:32:52;100615.00;;;12.90
58929;BMP180;44713;53.378;10.022;2022-11-15T12:35:25;100618.00;;;12.90
58929;BMP180;44713;53.378;10.022;2022-11-15T12:37:55;100615.00;;;12.90
58929;BMP180;44713;53.378;10.022;2022-11-15T12:45:34;100612.00;;;13.10
58929;BMP180;44713;53.378;10.022;2022-11-15T12:59:09;100594.00;;;13.30
58929;BMP180;44713;53.378;10.022;2022-11-15T13:06:48;100580.00;;;13.40
58929;BMP180;44713;53.378;10.022;2022-11-15T13:11:56;100575.00;;;13.40
58929;BMP180;44713;53.378;10.022;2022-11-15T13:17:20;100554.00;;;13.30
58929;BMP180;44713;53.378;10.022;2022-11-15T13:20:07;100556.00;;;13.20
58929;BMP180;44713;53.378;10.022;2022-11-15T13:30:48;100545.00;;;13.20
58929;BMP180;44713;53.378;10.022;2022-11-15T13:33:20;100544.00;;;13.30
58929;BMP180;44713;53.378;10.022;2022-11-15T13:35:56;100543.00;;;13.30
58929;BMP180;44713;53.378;10.022;2022-11-15T13:38:30;100541.00;;;13.30
58929;BMP180;44713;53.378;10.022;2022-11-15T13:40:57;100542.00;;;13.40
58929;BMP180;44713;53.378;10.022;2022-11-15T13:46:12;100535.00;;;13.30
58929;BMP180;44713;53.378;10.022;2022-11-15T13:48:40;100541.00;;;13.30
58929;BMP180;44713;53.378;10.022;2022-11-15T13:51:34;100541.00;;;13.30
58929;BMP180;44713;53.378;10.022;2022-11-15T13:56:44;100531.00;;;13.50
58929;BMP180;44713;53.378;10.022;2022-11-15T13:59:25;100533.00;;;13.60
58929;BMP180;44713;53.378;10.022;2022-11-15T14:01:51;100530.00;;;13.60
58929;BMP180;44713;53.378;10.022;2022-11-15T14:04:20;100531.00;;;13.60
58929;BMP180;44713;53.378;10.022;2022-11-15T14:06:49;100536.00;;;13.60
58929;BMP180;44713;53.378;10.022;2022-11-15T14:12:00;100526.00;;;13.60
58929;BMP180;44713;53.378;10.022;2022-11-15T14:14:28;100526.00;;;13.60
58929;BMP180;44713;53.378;10.022;2022-11-15T14:16:58;100529.00;;;13.70
58929;BMP180;44713;53.378;10.022;2022-11-15T14:27:31;100512.00;;;13.60
58929;BMP180;44713;53.378;10.022;2022-11-15T14:29:57;100515.00;;;13.60
58929;BMP180;44713;53.378;10.022;2022-11-15T14:32:28;100515.00;;;13.60
58929;BMP180;44713;53.378;10.022;2022-11-15T14:34:58;100518.00;;;13.60
58929;BMP180;44713;53.378;10.022;2022-11-15T14:37:26;100521.00;;;13.50
58929;BMP180;44713;53.378;10.022;2022-11-15T14:39:53;100512.00;;;13.50
58929;BMP180;44713;53.378;10.022;2022-11-15T14:42:19;100511.00;;;13.50
58929;BMP180;44713;53.378;10.022;2022-11-15T14:44:45;100510.00;;;13.40
58929;BMP180;44713;53.378;10.022;2022-11-15T14:47:10;100505.00;;;13.30
58929;BMP180;44713;53.378;10.022;2022-11-15T14:49:36;100504.00;;;13.30
58929;BMP180;44713;53.378;10.022;2022-11-15T14:52:01;100500.00;;;13.30
58929;BMP180;44713;53.378;10.022;2022-11-15T14:54:26;100498.00;;;13.20
58929;BMP180;44713;53.378;10.022;2022-11-15T14:56:52;100502.00;;;13.10
58929;BMP180;44713;53.378;10.022;2022-11-15T14:59:17;100499.00;;;13.10
58929;BMP180;44713;53.378;10.022;2022-11-15T15:01:42;100500.00;;;13.00
58929;BMP180;44713;53.378;10.022;2022-11-15T15:04:10;100500.00;;;13.00
58929;BMP180;44713;53.378;10.022;2022-11-15T15:06:35;100502.00;;;12.90
58929;BMP180;44713;53.378;10.022;2022-11-15T15:09:01;100508.00;;;12.80
58929;BMP180;44713;53.378;10.022;2022-11-15T15:11:27;100508.00;;;12.70
58929;BMP180;44713;53.378;10.022;2022-11-15T15:13:54;100506.00;;;12.60
58929;BMP180;44713;53.378;10.022;2022-11-15T15:16:23;100511.00;;;12.50
58929;BMP180;44713;53.378;10.022;2022-11-15T15:18:48;100516.00;;;12.40
58929;BMP180;44713;53.378;10.022;2022-11-15T15:21:22;100520.00;;;12.30
58929;BMP180;44713;53.378;10.022;2022-11-15T15:23:48;100519.00;;;12.30
58929;BMP180;44713;53.378;10.022;2022-11-15T15:26:13;100520.00;;;12.20
58929;BMP180;44713;53.378;10.022;2022-11-15T15:28:38;100526.00;;;12.10
58929;BMP180;44713;53.378;10.022;2022-11-15T15:31:04;100526.00;;;12.00
58929;BMP180;44713;53.378;10.022;2022-11-15T15:33:30;100518.00;;;11.90
58929;BMP180;44713;53.378;10.022;2022-11-15T15:35:55;100522.00;;;11.90
58929;BMP180;44713;53.378;10.022;2022-11-15T15:38:21;100521.00;;;11.70
58929;BMP180;44713;53.378;10.022;2022-11-15T15:40:46;100516.00;;;11.70
58929;BMP180;44713;53.378;10.022;2022-11-15T15:43:12;100510.00;;;11.60
58929;BMP180;44713;53.378;10.022;2022-11-15T15:45:38;100509.00;;;11.40
58929;BMP180;44713;53.378;10.022;2022-11-15T15:48:05;100514.00;;;11.40
58929;BMP180;44713;53.378;10.022;2022-11-15T15:50:34;100519.00;;;11.30
58929;BMP180;44713;53.378;10.022;2022-11-15T15:53:01;100522.00;;;11.20
58929;BMP180;44713;53.378;10.022;2022-11-15T15:55:27;100503.00;;;11.20
58929;BMP180;44713;53.378;10.022;2022-11-15T15:57:53;100504.00;;;11.20
58929;BMP180;44713;53.378;10.022;2022-11-15T16:00:19;100506.00;;;11.10
58929;BMP180;44713;53.378;10.022;2022-11-15T16:02:45;100504.00;;;11.10
58929;BMP180;44713;53.378;10.022;2022-11-15T16:05:11;100501.00;;;11.10
58929;BMP180;44713;53.378;10.022;2022-11-15T16:07:37;100502.00;;;11.10
58929;BMP180;44713;53.378;10.022;2022-11-15T16:10:32;100497.00;;;11.10
58929;BMP180;44713;53.378;10.022;2022-11-15T16:12:59;100505.00;;;11.10
58929;BMP180;44713;53.378;10.022;2022-11-15T16:15:27;100501.00;;;11.00
58929;BMP180;44713;53.378;10.022;2022-11-15T16:17:55;100495.00;;;11.00
58929;BMP180;44713;53.378;10.022;2022-11-15T16:22:49;100489.00;;;11.00
58929;BMP180;44713;53.378;10.022;2022-11-15T16:25:14;100481.00;;;11.00
58929;BMP180;44713;53.378;10.022;2022-11-15T16:27:39;100475.00;;;11.00
58929;BMP180;44713;53.378;10.022;2022-11-15T16:30:18;100483.00;;;11.00
58929;BMP180;44713;53.378;10.022;2022-11-15T16:32:44;100479.00;;;11.00
58929;BMP180;44713;53.378;10.022;2022-11-15T16:35:14;100480.00;;;11.00
58929;BMP180;44713;53.378;10.022;2022-11-15T16:37:40;100472.00;;;11.00
58929;BMP180;44713;53.378;10.022;2022-11-15T16:40:29;100472.00;;;11.10